createdAt,value
2018-07-23T00:01:12.630Z,11.97
2018-07-23T00:03:41.780Z,11.40
2018-07-23T00:06:10.889Z,10.70
2018-07-23T00:08:39.966Z,11.90
2018-07-23T00:11:09.171Z,11.20
2018-07-23T00:13:38.282Z,11.33
2018-07-23T00:16:07.387Z,11.33
2018-07-23T00:18:36.453Z,11.23
2018-07-23T00:21:05.562Z,11.00
2018-07-23T00:23:34.703Z,11.00
2018-07-23T00:26:03.811Z,11.30
2018-07-23T00:28:32.957Z,11.83
2018-07-23T00:31:02.027Z,11.13
2018-07-23T00:33:35.197Z,11.80
2018-07-23T00:36:05.193Z,11.63
2018-07-23T00:38:34.270Z,11.60
2018-07-23T00:41:03.337Z,12.10
2018-07-23T00:43:32.398Z,12.27
2018-07-23T00:46:01.217Z,12.80
2018-07-23T00:48:30.180Z,12.90
2018-07-23T00:50:59.297Z,12.47
2018-07-23T00:53:28.411Z,13.20
2018-07-23T00:55:57.440Z,12.53
2018-07-23T00:58:26.989Z,14.23
2018-07-23T01:00:56.111Z,13.67
2018-07-23T01:03:25.206Z,13.83
2018-07-23T01:05:54.323Z,13.63
2018-07-23T01:08:23.367Z,13.97
2018-07-23T01:10:52.463Z,15.07
2018-07-23T01:13:21.615Z,13.63
2018-07-23T01:15:50.702Z,14.33
2018-07-23T01:18:19.765Z,14.53
2018-07-23T01:20:48.858Z,14.67
2018-07-23T01:23:17.926Z,14.17
2018-07-23T01:25:46.979Z,14.47
2018-07-23T01:28:16.095Z,14.50
2018-07-23T01:30:45.022Z,14.50
2018-07-23T01:33:13.971Z,14.73
2018-07-23T01:35:43.071Z,14.37
2018-07-23T01:38:12.215Z,13.67
2018-07-23T01:40:41.314Z,14.17
2018-07-23T01:43:10.436Z,14.50
2018-07-23T01:45:39.559Z,13.47
2018-07-23T01:48:08.314Z,14.53
2018-07-23T01:50:37.376Z,13.83
2018-07-23T01:53:06.456Z,13.87
2018-07-23T01:55:35.534Z,13.93
2018-07-23T01:58:04.666Z,12.80
2018-07-23T02:00:33.769Z,13.37
2018-07-23T02:03:02.867Z,12.03
2018-07-23T02:05:31.955Z,13.00
2018-07-23T02:08:01.081Z,12.80
2018-07-23T02:10:30.161Z,12.37
2018-07-23T02:12:59.289Z,12.50
2018-07-23T02:15:28.066Z,11.80
2018-07-23T02:17:57.036Z,12.13
2018-07-23T02:20:26.114Z,11.50
2018-07-23T02:22:55.175Z,12.13
2018-07-23T02:25:24.292Z,10.57
2018-07-23T02:27:53.376Z,10.70
2018-07-23T02:30:22.515Z,11.87
2018-07-23T02:32:51.542Z,10.23
2018-07-23T02:35:20.389Z,10.60
2018-07-23T02:37:49.322Z,11.33
2018-07-23T02:40:18.147Z,10.90
2018-07-23T02:42:47.091Z,12.07
2018-07-23T02:45:15.902Z,11.77
2018-07-23T02:47:44.655Z,11.87
2018-07-23T02:50:13.614Z,12.43
2018-07-23T02:52:42.682Z,12.70
2018-07-23T02:55:11.753Z,12.20
2018-07-23T02:57:40.615Z,14.10
2018-07-23T03:00:09.645Z,12.80
2018-07-23T03:02:38.753Z,13.30
2018-07-23T03:05:07.829Z,13.00
2018-07-23T03:07:36.665Z,13.97
2018-07-23T03:10:05.851Z,13.40
2018-07-23T03:12:34.931Z,13.90
2018-07-23T03:15:04.867Z,14.87
2018-07-23T03:17:33.949Z,14.20
2018-07-23T03:20:03.019Z,13.67
2018-07-23T03:22:31.826Z,14.47
2018-07-23T03:25:00.774Z,14.07
2018-07-23T03:27:29.886Z,14.57
2018-07-23T03:29:58.701Z,14.47
2018-07-23T03:32:27.708Z,14.23
2018-07-23T03:34:56.832Z,17.07
2018-07-23T03:37:26.383Z,13.73
2018-07-23T03:39:55.503Z,13.50
2018-07-23T03:42:24.538Z,13.20
2018-07-23T03:44:53.565Z,12.87
2018-07-23T03:47:22.656Z,12.33
2018-07-23T03:49:52.376Z,12.97
2018-07-23T03:52:21.543Z,12.20
2018-07-23T03:54:50.633Z,12.30
2018-07-23T03:57:19.558Z,12.13
2018-07-23T03:59:48.663Z,12.10
2018-07-23T04:02:17.796Z,13.27
2018-07-23T04:04:46.893Z,14.23
2018-07-23T04:07:16.004Z,14.90
2018-07-23T04:09:45.817Z,14.33
2018-07-23T04:12:14.624Z,14.13
2018-07-23T04:14:43.590Z,14.60
2018-07-23T04:17:12.894Z,12.77
2018-07-23T04:19:41.712Z,13.33
2018-07-23T04:22:10.430Z,12.17
2018-07-23T04:24:39.418Z,11.67
2018-07-23T04:27:08.547Z,11.60
2018-07-23T04:29:37.637Z,10.80
2018-07-23T04:32:06.715Z,11.37
2018-07-23T04:34:35.872Z,12.23
2018-07-23T04:37:05.021Z,10.97
2018-07-23T04:39:34.178Z,12.07
2018-07-23T04:42:03.321Z,9.90
2018-07-23T04:44:32.185Z,10.33
2018-07-23T04:47:01.147Z,8.63
2018-07-23T04:49:30.275Z,9.90
2018-07-23T04:51:59.331Z,11.37
2018-07-23T04:54:28.389Z,9.57
2018-07-23T04:56:57.533Z,10.10
2018-07-23T04:59:26.603Z,8.43
2018-07-23T05:01:55.770Z,8.83
2018-07-23T05:04:24.840Z,8.63
2018-07-23T05:06:53.875Z,11.13
2018-07-23T05:09:22.710Z,8.67
2018-07-23T05:11:52.466Z,10.37
2018-07-23T05:14:21.585Z,9.67
2018-07-23T05:16:50.395Z,9.90
2018-07-23T05:19:19.096Z,12.97
2018-07-23T05:21:48.094Z,10.43
2018-07-23T05:24:18.074Z,9.37
2018-07-23T05:26:47.225Z,8.33
2018-07-23T05:29:16.275Z,9.30
2018-07-23T05:31:45.336Z,9.50
2018-07-23T05:34:14.236Z,8.90
2018-07-23T05:36:43.308Z,8.67
2018-07-23T05:39:12.840Z,10.00
2018-07-23T05:41:41.973Z,9.63
2018-07-23T05:44:11.292Z,8.77
2018-07-23T05:46:40.357Z,7.93
2018-07-23T05:49:09.380Z,7.37
2018-07-23T05:51:38.440Z,7.20
2018-07-23T05:54:07.947Z,9.83
2018-07-23T05:56:37.199Z,8.73
2018-07-23T05:59:06.239Z,6.97
2018-07-23T06:01:35.151Z,7.20
2018-07-23T06:04:04.514Z,6.40
2018-07-23T06:06:34.512Z,9.60
2018-07-23T06:09:04.881Z,8.17
2018-07-23T06:11:35.204Z,7.93
2018-07-23T06:14:04.359Z,6.03
2018-07-23T06:16:33.250Z,8.53
2018-07-23T06:19:02.487Z,6.57
2018-07-23T06:21:31.788Z,7.60
2018-07-23T06:24:00.842Z,7.20
2018-07-23T06:26:30.291Z,5.90
2018-07-23T06:28:59.452Z,9.53
2018-07-23T06:31:28.861Z,10.47
2018-07-23T06:33:58.192Z,7.23
2018-07-23T06:36:27.502Z,8.97
2018-07-23T06:38:56.892Z,10.63
2018-07-23T06:41:25.980Z,8.97
2018-07-23T06:43:55.099Z,7.37
2018-07-23T06:46:24.221Z,8.50
2018-07-23T06:48:53.690Z,7.43
2018-07-23T06:51:22.666Z,8.10
2018-07-23T06:53:51.748Z,7.13
2018-07-23T06:56:20.894Z,7.07
2018-07-23T06:58:50.733Z,4.30
2018-07-23T07:01:20.135Z,8.13
2018-07-23T07:03:49.276Z,6.83
2018-07-23T07:06:18.437Z,5.67
2018-07-23T07:08:47.466Z,6.07
2018-07-23T07:11:16.968Z,6.00
2018-07-23T07:13:46.299Z,8.03
2018-07-23T07:16:15.370Z,10.10
2018-07-23T07:18:44.501Z,4.27
2018-07-23T07:21:13.613Z,4.90
2018-07-23T07:23:42.890Z,3.83
2018-07-23T07:26:12.041Z,6.33
2018-07-23T07:28:41.206Z,4.33
2018-07-23T07:31:10.337Z,3.93
2018-07-23T07:33:39.395Z,4.57
2018-07-23T07:36:08.549Z,3.80
2018-07-23T07:38:37.642Z,4.97
2018-07-23T07:41:06.761Z,4.33
2018-07-23T07:43:35.669Z,5.67
2018-07-23T07:46:04.634Z,3.83
2018-07-23T07:48:34.119Z,5.40
2018-07-23T07:51:03.221Z,6.53
2018-07-23T07:53:32.336Z,3.23
2018-07-23T07:56:02.180Z,6.37
2018-07-23T07:58:30.924Z,4.53
2018-07-23T08:00:59.887Z,6.00
2018-07-23T08:03:29.212Z,6.03
2018-07-23T08:05:58.284Z,4.70
2018-07-23T08:08:27.456Z,7.23
2018-07-23T08:10:56.543Z,3.53
2018-07-23T08:13:25.650Z,5.57
2018-07-23T08:15:54.740Z,6.30
2018-07-23T08:18:23.786Z,2.90
2018-07-23T08:20:52.949Z,3.93
2018-07-23T08:23:22.043Z,2.50
2018-07-23T08:25:51.130Z,3.00
2018-07-23T08:28:20.222Z,3.83
2018-07-23T08:30:49.303Z,4.30
2018-07-23T08:33:18.442Z,4.10
2018-07-23T08:35:47.594Z,7.03
2018-07-23T08:38:16.740Z,4.40
2018-07-23T08:40:45.847Z,4.03
2018-07-23T08:43:14.984Z,2.57
2018-07-23T08:45:44.111Z,2.77
2018-07-23T08:48:13.210Z,3.73
2018-07-23T08:50:42.297Z,6.37
2018-07-23T08:53:17.353Z,9.20
2018-07-23T08:55:46.447Z,6.37
2018-07-23T08:58:15.643Z,5.20
2018-07-23T09:00:44.724Z,4.37
2018-07-23T09:03:13.731Z,4.73
2018-07-23T09:05:42.820Z,3.83
2018-07-23T09:08:11.904Z,5.83
2018-07-23T09:10:41.132Z,3.00
2018-07-23T09:13:10.249Z,2.33
2018-07-23T09:15:39.314Z,5.60
2018-07-23T09:18:08.449Z,4.37
2018-07-23T09:20:38.338Z,2.90
2018-07-23T09:23:07.281Z,3.97
2018-07-23T09:25:41.701Z,2.20
2018-07-23T09:28:10.890Z,3.00
2018-07-23T09:30:45.570Z,2.43
2018-07-23T09:33:14.494Z,1.80
2018-07-23T09:35:43.137Z,1.80
2018-07-23T09:38:12.147Z,4.50
2018-07-23T09:40:40.990Z,2.13
2018-07-23T09:43:10.005Z,4.57
2018-07-23T09:45:39.165Z,2.87
2018-07-23T09:48:08.206Z,2.13
2018-07-23T09:50:37.116Z,3.03
2018-07-23T09:53:05.794Z,2.93
2018-07-23T09:55:34.786Z,3.27
2018-07-23T09:58:03.835Z,1.87
2018-07-23T10:00:38.354Z,4.47
2018-07-23T10:03:07.527Z,6.00
2018-07-23T10:05:36.555Z,3.07
2018-07-23T10:08:05.728Z,3.23
2018-07-23T10:10:34.824Z,3.30
2018-07-23T10:13:03.885Z,2.80
2018-07-23T10:15:33.032Z,5.10
2018-07-23T10:18:02.314Z,2.73
2018-07-23T10:20:31.433Z,3.13
2018-07-23T10:23:00.472Z,2.73
2018-07-23T10:25:29.503Z,2.50
2018-07-23T10:27:58.606Z,4.23
2018-07-23T10:30:27.694Z,3.13
2018-07-23T10:32:56.907Z,4.93
2018-07-23T10:35:26.056Z,3.50
2018-07-23T10:37:55.183Z,2.20
2018-07-23T10:40:24.257Z,3.00
2018-07-23T10:42:53.454Z,4.77
2018-07-23T10:45:22.585Z,3.70
2018-07-23T10:47:51.673Z,3.37
2018-07-23T10:50:20.830Z,2.30
2018-07-23T10:52:49.961Z,2.03
2018-07-23T10:55:19.102Z,2.40
2018-07-23T10:57:48.995Z,5.50
2018-07-23T11:00:18.013Z,4.00
2018-07-23T11:02:47.153Z,2.47
2018-07-23T11:05:16.356Z,3.63
2018-07-23T11:07:45.503Z,2.63
2018-07-23T11:10:14.658Z,3.73
2018-07-23T11:12:43.799Z,3.10
2018-07-23T11:15:12.945Z,4.97
2018-07-23T11:17:42.094Z,2.30
2018-07-23T11:20:12.397Z,5.10
2018-07-23T11:22:41.874Z,2.80
2018-07-23T11:25:38.811Z,3.93
2018-07-23T11:27:40.149Z,2.37
2018-07-23T11:30:09.246Z,2.73
2018-07-23T11:32:38.382Z,4.40
2018-07-23T11:35:07.930Z,3.97
2018-07-23T11:37:37.698Z,2.60
2018-07-23T11:40:06.530Z,5.27
2018-07-23T11:42:35.653Z,4.53
2018-07-23T11:45:04.702Z,3.77
2018-07-23T11:47:33.737Z,2.40
2018-07-23T11:50:02.877Z,3.90
2018-07-23T11:52:31.993Z,5.30
2018-07-23T11:55:01.122Z,3.67
2018-07-23T11:57:30.271Z,5.50
2018-07-23T11:59:59.401Z,2.47
2018-07-23T12:02:28.481Z,3.73
2018-07-23T12:04:57.579Z,2.83
2018-07-23T12:07:26.692Z,5.60
2018-07-23T12:09:55.810Z,3.73
2018-07-23T12:12:24.918Z,6.13
2018-07-23T12:14:54.077Z,3.40
2018-07-23T12:17:23.226Z,3.57
2018-07-23T12:19:52.298Z,4.53
2018-07-23T12:22:21.565Z,3.07
2018-07-23T12:24:50.726Z,5.60
2018-07-23T12:27:19.811Z,4.37
2018-07-23T12:29:48.870Z,4.77
2018-07-23T12:32:18.113Z,3.47
2018-07-23T12:34:47.219Z,2.77
2018-07-23T12:37:16.308Z,2.67
2018-07-23T12:39:45.475Z,4.60
2018-07-23T12:42:14.497Z,2.63
2018-07-23T12:44:43.606Z,2.80
2018-07-23T12:47:12.846Z,3.37
2018-07-23T12:49:41.891Z,4.97
2018-07-23T12:52:10.929Z,5.73
2018-07-23T12:54:40.037Z,5.60
2018-07-23T12:57:08.840Z,3.43
2018-07-23T12:59:37.821Z,3.43
2018-07-23T13:02:06.974Z,3.73
2018-07-23T13:04:36.161Z,2.80
2018-07-23T13:07:05.243Z,4.43
2018-07-23T13:09:34.344Z,2.97
2018-07-23T13:12:03.375Z,3.93
2018-07-23T13:14:32.575Z,3.13
2018-07-23T13:17:01.653Z,2.60
2018-07-23T13:19:30.724Z,3.33
2018-07-23T13:21:59.834Z,4.03
2018-07-23T13:24:29.023Z,3.77
2018-07-23T13:26:58.257Z,3.40
2018-07-23T13:29:27.430Z,7.77
2018-07-23T13:31:56.508Z,5.47
2018-07-23T13:34:25.621Z,2.97
2018-07-23T13:36:54.661Z,2.93
2018-07-23T13:39:23.498Z,7.43
2018-07-23T13:41:52.427Z,3.80
2018-07-23T13:44:21.269Z,3.47
2018-07-23T13:46:50.279Z,3.53
2018-07-23T13:49:19.435Z,5.27
2018-07-23T13:51:48.573Z,2.80
2018-07-23T13:54:17.677Z,3.43
2018-07-23T13:56:46.762Z,4.27
2018-07-23T13:59:15.828Z,3.13
2018-07-23T14:01:44.939Z,4.67
2018-07-23T14:04:14.079Z,3.07
2018-07-23T14:06:43.241Z,3.97
2018-07-23T14:09:12.879Z,6.10
2018-07-23T14:11:42.080Z,6.97
2018-07-23T14:14:10.929Z,6.30
2018-07-23T14:16:39.851Z,4.20
2018-07-23T14:19:08.910Z,7.70
2018-07-23T14:21:37.966Z,4.10
2018-07-23T14:24:07.094Z,5.97
2018-07-23T14:26:36.179Z,6.77
2018-07-23T14:29:05.529Z,3.50
2018-07-23T14:31:34.542Z,3.90
2018-07-23T14:34:03.781Z,4.20
2018-07-23T14:36:33.040Z,3.03
2018-07-23T14:39:02.348Z,3.17
2018-07-23T14:41:31.593Z,6.20
2018-07-23T14:44:01.034Z,3.73
2018-07-23T14:46:30.203Z,7.27
2018-07-23T14:48:59.336Z,4.80
2018-07-23T14:51:28.608Z,3.53
2018-07-23T14:53:57.644Z,4.80
2018-07-23T14:56:26.773Z,5.13
2018-07-23T14:58:55.972Z,3.80
2018-07-23T15:01:25.159Z,2.70
2018-07-23T15:03:54.800Z,4.40
2018-07-23T15:06:23.918Z,3.27
2018-07-23T15:08:52.954Z,5.30
2018-07-23T15:11:22.110Z,3.77
2018-07-23T15:13:51.195Z,3.87
2018-07-23T15:16:20.333Z,2.90
2018-07-23T15:18:49.552Z,2.70
2018-07-23T15:21:18.568Z,5.03
2018-07-23T15:23:47.463Z,4.27
2018-07-23T15:26:16.388Z,5.47
2018-07-23T15:28:45.411Z,3.33
2018-07-23T15:31:14.641Z,3.77
2018-07-23T15:33:43.785Z,4.97
2018-07-23T15:36:12.906Z,3.77
2018-07-23T15:38:41.934Z,4.67
2018-07-23T15:41:10.857Z,2.70
2018-07-23T15:43:39.616Z,3.10
2018-07-23T15:46:08.723Z,6.73
2018-07-23T15:48:37.824Z,7.27
2018-07-23T15:51:06.940Z,5.27
2018-07-23T15:53:36.046Z,3.50
2018-07-23T15:56:05.154Z,3.47
2018-07-23T15:58:34.246Z,5.53
2018-07-23T16:01:03.398Z,2.50
2018-07-23T16:03:32.597Z,6.00
2018-07-23T16:06:01.755Z,8.93
2018-07-23T16:08:31.047Z,3.00
2018-07-23T16:11:00.222Z,7.00
2018-07-23T16:13:29.240Z,5.23
2018-07-23T16:15:58.304Z,5.90
2018-07-23T16:18:27.419Z,3.77
2018-07-23T16:20:56.538Z,7.50
2018-07-23T16:23:25.679Z,6.23
2018-07-23T16:25:54.895Z,2.83
2018-07-23T16:28:24.018Z,3.93
2018-07-23T16:30:53.131Z,4.67
2018-07-23T16:33:22.112Z,5.63
2018-07-23T16:35:51.131Z,3.57
2018-07-23T16:38:20.252Z,2.70
2018-07-23T16:40:49.410Z,3.53
2018-07-23T16:43:18.464Z,8.50
2018-07-23T16:45:47.732Z,3.10
2018-07-23T16:48:16.788Z,3.27
2018-07-23T16:50:45.619Z,7.17
2018-07-23T16:53:15.275Z,3.10
2018-07-23T16:55:44.382Z,4.63
2018-07-23T16:58:13.286Z,3.67
2018-07-23T17:00:42.238Z,5.53
2018-07-23T17:03:11.332Z,3.13
2018-07-23T17:05:40.418Z,3.20
2018-07-23T17:08:09.555Z,2.70
2018-07-23T17:10:38.711Z,4.60
2018-07-23T17:13:07.769Z,5.17
2018-07-23T17:15:36.849Z,3.77
2018-07-23T17:18:06.788Z,4.17
2018-07-23T17:20:35.958Z,4.03
2018-07-23T17:23:05.154Z,6.20
2018-07-23T17:25:35.018Z,4.70
2018-07-23T17:28:04.094Z,2.87
2018-07-23T17:30:33.590Z,6.73
2018-07-23T17:33:02.598Z,2.43
2018-07-23T17:35:31.815Z,3.83
2018-07-23T17:38:00.888Z,5.77
2018-07-23T17:40:30.044Z,8.83
2018-07-23T17:42:59.218Z,7.70
2018-07-23T17:45:28.287Z,5.30
2018-07-23T17:47:57.316Z,5.10
2018-07-23T17:50:26.182Z,4.10
2018-07-23T17:52:55.663Z,5.43
2018-07-23T17:55:24.728Z,4.77
2018-07-23T17:57:53.793Z,5.60
2018-07-23T18:00:22.618Z,3.00
2018-07-23T18:02:51.299Z,4.73
2018-07-23T18:05:20.383Z,4.00
2018-07-23T18:07:49.462Z,6.40
2018-07-23T18:10:18.258Z,9.57
2018-07-23T18:12:46.966Z,4.27
2018-07-23T18:15:17.452Z,3.90
2018-07-23T18:17:46.408Z,7.87
2018-07-23T18:20:15.852Z,6.23
2018-07-23T18:22:45.634Z,3.87
2018-07-23T18:25:14.813Z,4.60
2018-07-23T18:27:43.966Z,3.63
2018-07-23T18:30:13.510Z,3.50
2018-07-23T18:32:43.349Z,3.67
2018-07-23T18:35:12.506Z,4.57
2018-07-23T18:37:41.817Z,4.70
2018-07-23T18:40:11.006Z,5.27
2018-07-23T18:42:40.155Z,4.37
2018-07-23T18:45:10.115Z,3.40
2018-07-23T18:47:39.454Z,5.13
2018-07-23T18:50:08.402Z,4.63
2018-07-23T18:52:37.095Z,4.13
2018-07-23T18:55:06.219Z,4.60
2018-07-23T18:57:35.353Z,4.83
2018-07-23T19:00:05.140Z,6.73
2018-07-23T19:02:34.435Z,5.83
2018-07-23T19:05:03.668Z,3.50
2018-07-23T19:07:32.783Z,5.37
2018-07-23T19:10:01.898Z,5.50
2018-07-23T19:12:31.185Z,3.20
2018-07-23T19:15:00.300Z,5.30
2018-07-23T19:17:29.484Z,6.20
2018-07-23T19:19:58.573Z,6.33
2018-07-23T19:22:27.644Z,6.07
2018-07-23T19:24:56.824Z,5.87
2018-07-23T19:27:28.522Z,8.37
2018-07-23T19:30:13.023Z,6.07
2018-07-23T19:32:49.174Z,5.63
2018-07-23T19:35:25.034Z,6.90
2018-07-23T19:38:09.168Z,6.10
2018-07-23T19:40:40.116Z,6.27
2018-07-23T19:43:11.765Z,4.27
2018-07-23T19:45:44.479Z,4.47
2018-07-23T19:48:15.524Z,7.93
2018-07-23T19:50:47.939Z,8.50
2018-07-23T19:53:22.283Z,6.47
2018-07-23T19:55:53.138Z,10.03
2018-07-23T19:58:51.837Z,6.13
2018-07-23T20:01:24.945Z,8.47
2018-07-23T20:03:56.061Z,8.37
2018-07-23T20:06:29.528Z,8.23
2018-07-23T20:09:04.165Z,6.07
2018-07-23T20:11:44.416Z,8.23
2018-07-23T20:14:14.176Z,4.93
2018-07-23T20:16:44.847Z,6.13
2018-07-23T20:19:13.936Z,4.27
2018-07-23T20:21:48.321Z,4.77
2018-07-23T20:24:30.478Z,5.40
2018-07-23T20:27:00.319Z,7.07
2018-07-23T20:29:30.589Z,5.53
2018-07-23T20:32:09.227Z,6.53
2018-07-23T20:34:41.971Z,7.67
2018-07-23T20:37:16.046Z,5.43
2018-07-23T20:39:50.248Z,6.87
2018-07-23T20:42:22.395Z,5.13
2018-07-23T20:49:30.643Z,8.50
2018-07-23T20:52:07.672Z,11.23
2018-07-23T21:00:12.893Z,6.33
2018-07-23T21:02:49.251Z,6.97
2018-07-23T21:05:23.134Z,11.73
2018-07-23T21:07:56.994Z,9.97
2018-07-23T21:10:27.208Z,11.10
2018-07-23T21:12:56.436Z,5.30
2018-07-23T21:15:25.498Z,6.70
2018-07-23T21:17:55.442Z,10.67
2018-07-23T21:20:24.559Z,7.63
2018-07-23T21:22:53.692Z,9.87
2018-07-23T21:25:22.581Z,19.03
2018-07-23T21:27:51.598Z,20.63
2018-07-23T21:30:20.427Z,10.00
2018-07-23T21:32:49.410Z,4.30
2018-07-23T21:35:18.497Z,7.90
2018-07-23T21:37:47.719Z,5.33
2018-07-23T21:40:16.964Z,6.43
2018-07-23T21:42:46.062Z,7.17
2018-07-23T21:45:15.215Z,8.20
2018-07-23T21:47:44.219Z,6.10
2018-07-23T21:50:13.471Z,6.50
2018-07-23T21:52:42.622Z,5.37
2018-07-23T21:55:11.434Z,5.67
2018-07-23T21:57:40.088Z,3.70
2018-07-23T22:00:15.148Z,6.07
2018-07-23T22:02:44.178Z,6.47
2018-07-23T22:05:13.101Z,7.00
2018-07-23T22:07:50.475Z,4.97
2018-07-23T22:10:21.121Z,4.80
2018-07-23T22:12:50.213Z,4.73
2018-07-23T22:15:19.296Z,6.33
2018-07-23T22:17:48.398Z,4.80
2018-07-23T22:20:17.293Z,5.00
2018-07-23T22:22:46.255Z,4.77
2018-07-23T22:25:15.352Z,5.03
2018-07-23T22:27:44.437Z,6.20
2018-07-23T22:30:13.458Z,5.27
2018-07-23T22:32:42.506Z,8.80
2018-07-23T22:35:11.583Z,7.17
2018-07-23T22:37:40.456Z,5.90
2018-07-23T22:40:09.361Z,4.47
2018-07-23T22:42:38.185Z,5.67
2018-07-23T22:45:07.138Z,4.90
2018-07-23T22:47:35.928Z,7.83
2018-07-23T22:50:05.150Z,8.20
2018-07-23T22:52:34.256Z,4.63
2018-07-23T22:55:03.357Z,7.60
2018-07-23T22:57:32.490Z,7.07
2018-07-23T23:00:02.291Z,4.77
2018-07-23T23:02:31.300Z,6.57
2018-07-23T23:05:00.144Z,6.50
2018-07-23T23:07:29.154Z,6.67
2018-07-23T23:09:58.282Z,6.23
2018-07-23T23:12:27.135Z,6.17
2018-07-23T23:14:56.083Z,6.17
2018-07-23T23:17:25.199Z,5.17
2018-07-23T23:19:54.245Z,7.10
2018-07-23T23:22:23.282Z,4.30
2018-07-23T23:24:52.298Z,5.03
2018-07-23T23:27:21.375Z,3.80
2018-07-23T23:29:50.449Z,4.73
2018-07-23T23:32:19.559Z,7.03
2018-07-23T23:34:48.681Z,4.23
2018-07-23T23:37:17.784Z,5.07
2018-07-23T23:39:46.828Z,5.30
2018-07-23T23:42:15.927Z,8.10
2018-07-23T23:44:45.047Z,8.23
2018-07-23T23:47:14.134Z,5.50
2018-07-23T23:49:43.173Z,6.53
2018-07-23T23:52:12.245Z,7.23
2018-07-23T23:54:41.326Z,7.57
2018-07-23T23:57:10.709Z,9.83
2018-07-23T23:59:39.796Z,5.70
